createdAt,value
2022-07-25T00:01:49.613Z,98055.47
2022-07-25T00:04:17.423Z,98061.78
2022-07-25T00:06:45.550Z,98030.16
2022-07-25T00:09:13.870Z,98065.00
2022-07-25T00:11:40.918Z,98078.03
2022-07-25T00:14:08.189Z,98051.94
2022-07-25T00:16:35.429Z,98067.44
2022-07-25T00:19:02.191Z,98069.72
2022-07-25T00:21:29.165Z,98051.50
2022-07-25T00:23:55.902Z,98060.19
2022-07-25T00:26:22.665Z,98068.72
2022-07-25T00:28:49.381Z,98065.66
2022-07-25T00:31:16.171Z,98058.47
2022-07-25T00:33:42.983Z,98072.25
2022-07-25T00:36:10.280Z,98075.47
2022-07-25T00:38:37.066Z,98079.44
2022-07-25T00:41:04.552Z,98117.44
2022-07-25T00:43:31.942Z,98120.81
2022-07-25T00:45:59.105Z,98103.13
2022-07-25T00:48:27.581Z,98106.13
2022-07-25T00:50:55.846Z,98088.78
2022-07-25T00:53:22.723Z,98090.06
2022-07-25T00:55:49.418Z,98095.63
2022-07-25T00:58:16.675Z,98087.56
2022-07-25T01:00:43.428Z,98064.28
2022-07-25T01:03:12.830Z,98103.66
2022-07-25T01:05:39.784Z,98093.16
2022-07-25T01:08:06.906Z,98109.69
2022-07-25T01:10:33.995Z,98097.22
2022-07-25T01:13:00.791Z,98075.34
2022-07-25T01:15:27.774Z,98102.91
2022-07-25T01:17:54.469Z,98111.44
2022-07-25T01:20:23.463Z,98122.00
2022-07-25T01:22:50.748Z,98108.38
2022-07-25T01:25:19.473Z,98127.13
2022-07-25T01:27:52.726Z,98149.75
2022-07-25T01:30:22.755Z,98144.19
2022-07-25T01:32:49.655Z,98138.69
2022-07-25T01:35:16.701Z,98169.56
2022-07-25T01:37:45.783Z,98171.91
2022-07-25T01:40:13.145Z,98197.84
2022-07-25T01:42:39.787Z,98175.75
2022-07-25T01:45:07.234Z,98160.09
2022-07-25T01:47:33.943Z,98187.72
2022-07-25T01:50:00.565Z,98180.41
2022-07-25T01:52:27.265Z,98188.13
2022-07-25T01:54:53.936Z,98188.94
2022-07-25T01:57:21.464Z,98185.09
2022-07-25T01:59:49.801Z,98192.63
2022-07-25T02:02:16.525Z,98186.50
2022-07-25T02:04:43.241Z,98190.66
2022-07-25T02:07:10.039Z,98181.84
2022-07-25T02:09:36.741Z,98179.06
2022-07-25T02:12:03.618Z,98189.06
2022-07-25T02:14:30.285Z,98181.91
2022-07-25T02:16:57.144Z,98170.59
2022-07-25T02:19:23.987Z,98164.28
2022-07-25T02:21:50.879Z,98187.97
2022-07-25T02:24:17.825Z,98144.25
2022-07-25T02:26:44.677Z,98174.03
2022-07-25T02:29:11.418Z,98183.16
2022-07-25T02:31:38.096Z,98162.53
2022-07-25T02:34:05.235Z,98164.53
2022-07-25T02:36:32.250Z,98168.09
2022-07-25T02:38:58.965Z,98158.84
2022-07-25T02:41:25.738Z,98168.53
2022-07-25T02:43:52.427Z,98166.31
2022-07-25T02:46:19.324Z,98174.00
2022-07-25T02:48:46.178Z,98162.78
2022-07-25T02:51:13.235Z,98179.59
2022-07-25T02:53:56.595Z,98154.53
2022-07-25T02:56:23.667Z,98155.94
2022-07-25T02:58:50.369Z,98159.03
2022-07-25T03:01:17.074Z,98155.47
2022-07-25T03:03:43.925Z,98147.75
2022-07-25T03:06:10.574Z,98162.34
2022-07-25T03:08:37.295Z,98157.19
2022-07-25T03:11:04.019Z,98121.91
2022-07-25T03:13:33.266Z,98147.00
2022-07-25T03:16:00.403Z,98141.41
2022-07-25T03:18:27.088Z,98133.22
2022-07-25T03:20:53.770Z,98161.06
2022-07-25T03:23:20.661Z,98171.00
2022-07-25T03:25:47.514Z,98142.88
2022-07-25T03:28:14.295Z,98149.25
2022-07-25T03:30:40.911Z,98162.47
2022-07-25T03:33:07.556Z,98154.22
2022-07-25T03:35:35.188Z,98143.16
2022-07-25T03:38:02.216Z,98162.75
2022-07-25T03:40:29.099Z,98164.66
2022-07-25T03:42:55.767Z,98156.13
2022-07-25T03:45:22.557Z,98141.22
2022-07-25T03:47:49.305Z,98134.00
2022-07-25T03:50:16.356Z,98152.13
2022-07-25T03:52:42.982Z,98128.97
2022-07-25T03:55:11.077Z,98131.13
2022-07-25T03:57:38.413Z,98139.34
2022-07-25T04:00:10.203Z,98164.75
2022-07-25T04:02:40.392Z,98150.41
2022-07-25T04:05:08.316Z,98160.06
2022-07-25T04:07:35.794Z,98174.47
2022-07-25T04:10:04.823Z,98160.72
2022-07-25T04:12:31.880Z,98160.41
2022-07-25T04:14:58.767Z,98149.41
2022-07-25T04:17:25.915Z,98191.34
2022-07-25T04:19:52.706Z,98190.19
2022-07-25T04:22:19.406Z,98144.88
2022-07-25T04:24:46.071Z,98187.91
2022-07-25T04:27:12.700Z,98186.59
2022-07-25T04:29:39.465Z,98173.63
2022-07-25T04:32:06.745Z,98166.47
2022-07-25T04:34:33.682Z,98168.94
2022-07-25T04:37:00.330Z,98157.09
2022-07-25T04:39:27.110Z,98183.56
2022-07-25T04:41:53.839Z,98184.34
2022-07-25T04:44:20.506Z,98183.22
2022-07-25T04:46:47.258Z,98200.94
2022-07-25T04:49:14.140Z,98184.31
2022-07-25T04:51:40.951Z,98210.16
2022-07-25T04:54:07.962Z,98201.72
2022-07-25T04:56:35.514Z,98225.38
2022-07-25T04:59:06.281Z,98217.88
2022-07-25T05:01:34.574Z,98229.06
2022-07-25T05:04:01.652Z,98198.69
2022-07-25T05:06:28.455Z,98185.69
2022-07-25T05:08:55.477Z,98206.78
2022-07-25T05:11:22.277Z,98200.19
2022-07-25T05:13:49.404Z,98223.75
2022-07-25T05:16:16.325Z,98219.59
2022-07-25T05:18:43.131Z,98239.59
2022-07-25T05:21:13.210Z,98232.94
2022-07-25T05:23:40.990Z,98229.44
2022-07-25T05:26:07.774Z,98234.06
2022-07-25T05:28:34.504Z,98241.03
2022-07-25T05:31:01.393Z,98246.97
2022-07-25T05:33:28.114Z,98199.41
2022-07-25T05:35:54.897Z,98200.47
2022-07-25T05:38:21.711Z,98211.06
2022-07-25T05:40:49.126Z,98201.97
2022-07-25T05:43:15.761Z,98210.25
2022-07-25T05:45:42.637Z,98201.38
2022-07-25T05:48:09.331Z,98223.97
2022-07-25T05:50:39.147Z,98201.16
2022-07-25T05:53:05.875Z,98189.59
2022-07-25T05:55:32.555Z,98195.16
2022-07-25T05:57:59.518Z,98201.28
2022-07-25T06:00:26.519Z,98207.44
2022-07-25T06:02:53.351Z,98203.84
2022-07-25T06:05:20.124Z,98179.56
2022-07-25T06:07:46.787Z,98191.84
2022-07-25T06:10:13.491Z,98178.31
2022-07-25T06:12:40.151Z,98197.09
2022-07-25T06:15:07.886Z,98209.84
2022-07-25T06:17:39.496Z,98208.19
2022-07-25T06:20:06.765Z,98211.38
2022-07-25T06:22:33.412Z,98193.16
2022-07-25T06:25:02.243Z,98188.94
2022-07-25T06:27:29.639Z,98202.66
2022-07-25T06:29:56.553Z,98205.25
2022-07-25T06:32:23.357Z,98209.81
2022-07-25T06:34:50.025Z,98208.88
2022-07-25T06:37:16.764Z,98214.75
2022-07-25T06:39:45.927Z,98226.28
2022-07-25T06:42:13.207Z,98213.22
2022-07-25T06:44:39.983Z,98217.94
2022-07-25T06:47:10.702Z,98213.88
2022-07-25T06:49:37.407Z,98230.81
2022-07-25T06:52:04.399Z,98204.72
2022-07-25T06:54:31.064Z,98190.41
2022-07-25T06:56:57.771Z,98216.69
2022-07-25T06:59:24.481Z,98193.75
2022-07-25T07:01:51.811Z,98235.53
2022-07-25T07:04:18.915Z,98231.66
2022-07-25T07:06:45.654Z,98231.97
2022-07-25T07:09:12.392Z,98225.16
2022-07-25T07:11:39.121Z,98216.50
2022-07-25T07:14:06.208Z,98234.75
2022-07-25T07:16:33.365Z,98228.22
2022-07-25T07:19:00.375Z,98202.97
2022-07-25T07:21:27.066Z,98220.91
2022-07-25T07:23:53.965Z,98209.97
2022-07-25T07:26:21.516Z,98212.25
2022-07-25T07:28:48.243Z,98237.97
2022-07-25T07:31:18.358Z,98241.28
2022-07-25T07:33:45.754Z,98229.75
2022-07-25T07:36:12.768Z,98206.59
2022-07-25T07:38:40.122Z,98237.25
2022-07-25T07:41:06.811Z,98213.88
2022-07-25T07:43:33.519Z,98217.09
2022-07-25T07:46:01.544Z,98226.66
2022-07-25T07:48:30.966Z,98205.75
2022-07-25T07:50:58.457Z,98220.84
2022-07-25T07:53:43.646Z,98226.97
2022-07-25T07:56:10.600Z,98248.59
2022-07-25T07:58:37.262Z,98241.88
2022-07-25T08:01:04.533Z,98249.09
2022-07-25T08:03:31.485Z,98248.94
2022-07-25T08:05:58.466Z,98243.25
2022-07-25T08:08:30.633Z,98242.38
2022-07-25T08:10:59.168Z,98237.13
2022-07-25T08:13:28.653Z,98241.75
2022-07-25T08:15:59.752Z,98240.06
2022-07-25T08:18:30.070Z,98244.38
2022-07-25T08:20:57.098Z,98273.31
2022-07-25T08:23:25.419Z,98241.91
2022-07-25T08:25:52.187Z,98258.09
2022-07-25T08:28:19.064Z,98259.63
2022-07-25T08:30:45.876Z,98255.16
2022-07-25T08:33:16.228Z,98283.78
2022-07-25T08:35:55.774Z,98232.97
2022-07-25T08:38:24.852Z,98254.97
2022-07-25T08:40:53.193Z,98284.31
2022-07-25T08:43:20.145Z,98266.19
2022-07-25T08:45:54.028Z,98283.09
2022-07-25T08:48:25.565Z,98267.06
2022-07-25T08:50:54.112Z,98275.91
2022-07-25T08:53:37.163Z,98263.59
2022-07-25T08:56:12.185Z,98281.59
2022-07-25T08:58:40.959Z,98267.19
2022-07-25T09:01:08.238Z,98269.66
2022-07-25T09:03:36.378Z,98257.50
2022-07-25T09:06:17.537Z,98255.28
2022-07-25T09:09:00.621Z,98250.53
2022-07-25T09:11:29.985Z,98240.97
2022-07-25T09:14:01.777Z,98261.78
2022-07-25T09:16:34.100Z,98249.72
2022-07-25T09:19:12.994Z,98246.81
2022-07-25T09:21:40.765Z,98268.00
2022-07-25T09:24:16.232Z,98260.88
2022-07-25T09:26:54.631Z,98265.84
2022-07-25T09:29:28.587Z,98254.59
2022-07-25T09:31:57.160Z,98271.31
2022-07-25T09:34:32.081Z,98241.00
2022-07-25T09:36:58.860Z,98257.50
2022-07-25T09:39:45.010Z,98250.56
2022-07-25T09:42:36.463Z,98262.91
2022-07-25T09:45:12.875Z,98267.03
2022-07-25T09:47:54.614Z,98254.56
2022-07-25T09:50:22.919Z,98260.16
2022-07-25T09:52:52.453Z,98235.75
2022-07-25T09:55:20.466Z,98233.53
2022-07-25T09:57:49.163Z,98244.06
2022-07-25T10:00:24.204Z,98252.66
2022-07-25T10:03:05.862Z,98224.16
2022-07-25T10:05:35.369Z,98233.56
2022-07-25T10:08:06.854Z,98234.59
2022-07-25T10:10:39.861Z,98222.47
2022-07-25T10:13:11.521Z,98207.81
2022-07-25T10:15:50.242Z,98224.59
2022-07-25T10:18:23.809Z,98231.31
2022-07-25T10:20:52.978Z,98218.56
2022-07-25T10:23:27.943Z,98203.22
2022-07-25T10:26:13.877Z,98206.09
2022-07-25T10:28:42.393Z,98227.19
2022-07-25T10:31:24.579Z,98213.44
2022-07-25T10:33:57.049Z,98219.91
2022-07-25T10:36:25.185Z,98220.78
2022-07-25T10:38:56.193Z,98192.22
2022-07-25T10:41:26.093Z,98214.41
2022-07-25T10:43:57.718Z,98211.56
2022-07-25T10:46:28.187Z,98212.72
2022-07-25T10:49:07.391Z,98206.78
2022-07-25T10:51:41.319Z,98216.44
2022-07-25T10:54:16.087Z,98219.25
2022-07-25T10:56:59.672Z,98185.34
2022-07-25T10:59:38.936Z,98192.81
2022-07-25T11:02:09.677Z,98182.31
2022-07-25T11:04:36.631Z,98172.41
2022-07-25T11:07:20.404Z,98205.72
2022-07-25T11:10:00.462Z,98175.84
2022-07-25T11:12:27.944Z,98198.78
2022-07-25T11:15:03.212Z,98190.75
2022-07-25T11:17:30.253Z,98164.72
2022-07-25T11:19:58.281Z,98185.06
2022-07-25T11:22:26.446Z,98173.56
2022-07-25T11:24:53.613Z,98180.38
2022-07-25T11:27:28.746Z,98184.81
2022-07-25T11:30:16.020Z,98173.69
2022-07-25T11:32:43.912Z,98178.72
2022-07-25T11:35:14.056Z,98165.97
2022-07-25T11:37:43.532Z,98148.66
2022-07-25T11:40:11.165Z,98162.44
2022-07-25T11:42:47.876Z,98179.19
2022-07-25T11:45:20.201Z,98169.13
2022-07-25T11:48:11.661Z,98118.03
2022-07-25T11:50:40.722Z,98163.63
2022-07-25T11:53:10.284Z,98142.97
2022-07-25T11:55:45.459Z,98165.97
2022-07-25T11:58:13.948Z,98156.50
2022-07-25T12:00:43.342Z,98140.38
2022-07-25T12:03:18.697Z,98153.34
2022-07-25T12:05:47.849Z,98155.06
2022-07-25T12:08:19.765Z,98130.25
2022-07-25T12:10:48.349Z,98131.03
2022-07-25T12:13:29.440Z,98149.69
2022-07-25T12:15:57.431Z,98136.06
2022-07-25T12:18:24.178Z,98122.63
2022-07-25T12:20:51.025Z,98128.94
2022-07-25T12:23:18.808Z,98113.44
2022-07-25T12:25:46.739Z,98110.03
2022-07-25T12:28:14.419Z,98089.72
2022-07-25T12:30:43.106Z,98109.81
2022-07-25T12:33:10.578Z,98105.22
2022-07-25T12:35:37.582Z,98106.06
2022-07-25T12:38:04.967Z,98075.69
2022-07-25T12:40:31.907Z,98095.22
2022-07-25T12:42:59.543Z,98066.09
2022-07-25T12:45:26.750Z,98072.75
2022-07-25T12:47:53.469Z,98089.44
2022-07-25T12:50:20.220Z,98077.63
2022-07-25T12:52:47.443Z,98090.66
2022-07-25T12:55:19.254Z,98076.44
2022-07-25T12:57:46.570Z,98073.72
2022-07-25T13:00:16.942Z,98088.91
2022-07-25T13:02:44.124Z,98067.81
2022-07-25T13:05:11.223Z,98093.25
2022-07-25T13:07:38.430Z,98056.66
2022-07-25T13:10:06.477Z,98056.91
2022-07-25T13:12:33.246Z,98066.78
2022-07-25T13:14:59.944Z,98067.25
2022-07-25T13:17:27.838Z,98056.59
2022-07-25T13:19:56.481Z,98049.31
2022-07-25T13:22:23.909Z,98071.28
2022-07-25T13:24:50.974Z,98049.47
2022-07-25T13:27:21.882Z,98050.84
2022-07-25T13:29:54.269Z,98041.34
2022-07-25T13:32:22.288Z,98038.75
2022-07-25T13:34:49.040Z,98040.09
2022-07-25T13:37:15.859Z,98050.75
2022-07-25T13:39:42.811Z,98044.19
2022-07-25T13:42:09.647Z,98032.69
2022-07-25T13:44:36.378Z,98059.13
2022-07-25T13:47:03.173Z,98032.88
2022-07-25T13:49:31.580Z,98046.22
2022-07-25T13:51:58.265Z,98030.88
2022-07-25T13:54:24.986Z,98042.38
2022-07-25T13:56:51.807Z,98024.69
2022-07-25T13:59:21.430Z,98042.59
2022-07-25T14:01:49.487Z,98032.00
2022-07-25T14:04:16.388Z,98033.47
2022-07-25T14:06:43.462Z,98024.44
2022-07-25T14:09:10.640Z,98023.03
2022-07-25T14:11:37.579Z,98041.59
2022-07-25T14:14:04.269Z,98032.97
2022-07-25T14:16:31.139Z,98024.41
2022-07-25T14:18:57.935Z,98007.25
2022-07-25T14:21:25.390Z,98034.63
2022-07-25T14:23:52.437Z,98016.78
2022-07-25T14:26:19.320Z,98005.13
2022-07-25T14:28:46.004Z,97999.06
2022-07-25T14:31:12.817Z,98020.41
2022-07-25T14:33:40.625Z,98003.72
2022-07-25T14:36:09.457Z,97990.09
2022-07-25T14:38:36.181Z,98016.41
2022-07-25T14:41:05.698Z,98035.47
2022-07-25T14:43:35.778Z,98018.28
2022-07-25T14:46:02.457Z,98018.13
2022-07-25T14:48:29.370Z,98020.53
2022-07-25T14:50:56.153Z,98032.38
2022-07-25T14:53:22.844Z,98010.72
2022-07-25T14:55:49.542Z,97999.91
2022-07-25T14:58:16.213Z,98014.00
2022-07-25T15:00:43.785Z,98023.16
2022-07-25T15:03:10.569Z,98020.22
2022-07-25T15:05:38.511Z,98025.78
2022-07-25T15:08:06.419Z,98035.78
2022-07-25T15:10:33.216Z,98025.75
2022-07-25T15:13:20.861Z,98010.75
2022-07-25T15:15:47.013Z,98018.34
2022-07-25T15:18:14.235Z,98020.63
2022-07-25T15:20:41.163Z,98000.44
2022-07-25T15:23:07.939Z,98019.84
2022-07-25T15:26:00.558Z,98021.50
2022-07-25T15:28:21.735Z,98005.25
2022-07-25T15:30:48.656Z,98011.75
2022-07-25T15:33:16.339Z,98002.69
2022-07-25T15:35:45.494Z,98022.19
2022-07-25T15:38:13.096Z,97996.50
2022-07-25T15:40:39.811Z,98004.53
2022-07-25T15:43:06.524Z,98017.69
2022-07-25T15:45:33.847Z,97994.06
2022-07-25T15:48:01.549Z,98021.84
2022-07-25T15:50:28.237Z,97995.44
2022-07-25T15:52:54.900Z,98027.59
2022-07-25T15:55:21.602Z,98005.75
2022-07-25T15:57:48.225Z,98000.00
2022-07-25T16:00:15.137Z,98015.41
2022-07-25T16:02:41.823Z,98005.72
2022-07-25T16:05:08.763Z,98016.53
2022-07-25T16:07:35.403Z,98009.47
2022-07-25T16:10:02.102Z,97995.47
2022-07-25T16:12:28.955Z,98012.41
2022-07-25T16:14:56.172Z,98024.72
2022-07-25T16:17:23.888Z,97995.25
2022-07-25T16:19:50.544Z,98004.16
2022-07-25T16:22:17.311Z,98007.97
2022-07-25T16:24:44.475Z,98005.25
2022-07-25T16:27:11.163Z,98011.47
2022-07-25T16:29:38.281Z,98010.16
2022-07-25T16:32:05.971Z,98033.88
2022-07-25T16:34:33.106Z,98023.28
2022-07-25T16:37:01.438Z,98043.97
2022-07-25T16:39:28.730Z,98020.72
2022-07-25T16:41:55.577Z,98036.66
2022-07-25T16:44:23.854Z,98028.41
2022-07-25T16:46:51.012Z,98003.91
2022-07-25T16:49:17.858Z,98035.47
2022-07-25T16:51:45.484Z,98038.56
2022-07-25T16:54:12.553Z,98028.94
2022-07-25T16:56:39.902Z,98014.19
2022-07-25T16:59:07.941Z,98042.63
2022-07-25T17:01:35.863Z,98033.91
2022-07-25T17:04:02.840Z,98018.28
2022-07-25T17:06:29.822Z,98050.16
2022-07-25T17:08:56.780Z,98028.47
2022-07-25T17:11:23.465Z,98034.03
2022-07-25T17:13:50.194Z,98036.81
2022-07-25T17:16:17.018Z,98028.94
2022-07-25T17:18:43.719Z,98021.16
2022-07-25T17:21:10.718Z,98027.22
2022-07-25T17:23:37.367Z,98023.88
2022-07-25T17:26:05.504Z,98059.53
2022-07-25T17:28:32.815Z,98043.34
2022-07-25T17:30:59.488Z,98030.44
2022-07-25T17:33:26.384Z,98023.84
2022-07-25T17:35:53.790Z,98058.50
2022-07-25T17:38:25.650Z,98031.06
2022-07-25T17:40:53.664Z,98038.38
2022-07-25T17:43:20.304Z,98046.91
2022-07-25T17:45:46.973Z,98051.94
2022-07-25T17:48:13.815Z,98041.44
2022-07-25T17:50:40.539Z,98059.78
2022-07-25T17:53:07.225Z,98053.63
2022-07-25T17:55:38.809Z,98051.25
2022-07-25T17:58:06.051Z,98055.56
2022-07-25T18:00:32.846Z,98072.44
2022-07-25T18:03:00.013Z,98042.69
2022-07-25T18:05:27.797Z,98052.25
2022-07-25T18:07:54.582Z,98054.31
2022-07-25T18:10:22.070Z,98051.41
2022-07-25T18:12:49.655Z,98070.84
2022-07-25T18:15:16.883Z,98044.41
2022-07-25T18:17:48.114Z,98068.38
2022-07-25T18:20:16.702Z,98054.50
2022-07-25T18:22:43.511Z,98090.09
2022-07-25T18:25:12.197Z,98057.97
2022-07-25T18:27:44.018Z,98090.88
2022-07-25T18:30:12.107Z,98078.31
2022-07-25T18:32:39.503Z,98097.03
2022-07-25T18:35:08.018Z,98079.22
2022-07-25T18:37:37.099Z,98086.19
2022-07-25T18:40:08.722Z,98077.09
2022-07-25T18:42:35.989Z,98087.91
2022-07-25T18:45:03.979Z,98095.69
2022-07-25T18:47:35.041Z,98095.34
2022-07-25T18:50:02.603Z,98085.16
2022-07-25T18:52:34.748Z,98086.16
2022-07-25T18:55:02.336Z,98110.44
2022-07-25T18:57:30.109Z,98087.50
2022-07-25T19:00:00.933Z,98106.81
2022-07-25T19:02:29.610Z,98089.22
2022-07-25T19:04:56.467Z,98104.72
2022-07-25T19:07:23.432Z,98108.41
2022-07-25T19:09:50.112Z,98089.19
2022-07-25T19:12:16.917Z,98096.75
2022-07-25T19:14:44.203Z,98116.00
2022-07-25T19:17:12.034Z,98116.06
2022-07-25T19:19:38.975Z,98101.69
2022-07-25T19:22:05.727Z,98103.09
2022-07-25T19:24:32.477Z,98105.16
2022-07-25T19:26:59.213Z,98122.31
2022-07-25T19:29:27.567Z,98130.34
2022-07-25T19:31:54.272Z,98111.09
2022-07-25T19:34:23.059Z,98121.78
2022-07-25T19:36:49.814Z,98133.25
2022-07-25T19:39:18.112Z,98116.22
2022-07-25T19:41:47.011Z,98118.75
2022-07-25T19:44:14.124Z,98138.91
2022-07-25T19:46:40.874Z,98132.59
2022-07-25T19:49:08.031Z,98122.81
2022-07-25T19:51:34.996Z,98164.69
2022-07-25T19:54:03.867Z,98139.13
2022-07-25T19:56:31.575Z,98165.28
2022-07-25T19:58:58.591Z,98148.59
2022-07-25T20:01:25.821Z,98134.81
2022-07-25T20:03:52.583Z,98167.59
2022-07-25T20:06:20.810Z,98146.13
2022-07-25T20:08:48.357Z,98166.28
2022-07-25T20:11:16.163Z,98162.72
2022-07-25T20:13:42.937Z,98166.88
2022-07-25T20:16:10.560Z,98157.53
2022-07-25T20:18:37.744Z,98157.81
2022-07-25T20:21:04.946Z,98195.03
2022-07-25T20:23:31.881Z,98170.81
2022-07-25T20:26:00.737Z,98183.81
2022-07-25T20:28:27.593Z,98149.41
2022-07-25T20:30:55.986Z,98162.09
2022-07-25T20:33:27.273Z,98182.53
2022-07-25T20:35:55.044Z,98155.91
2022-07-25T20:38:25.665Z,98180.97
2022-07-25T20:40:53.349Z,98173.91
2022-07-25T20:43:20.098Z,98195.97
2022-07-25T20:45:47.458Z,98205.63
2022-07-25T20:48:14.795Z,98194.63
2022-07-25T20:50:41.502Z,98186.94
2022-07-25T20:53:08.925Z,98202.69
2022-07-25T20:55:36.903Z,98176.25
2022-07-25T20:58:05.169Z,98188.91
2022-07-25T21:00:32.447Z,98199.44
2022-07-25T21:03:00.423Z,98211.03
2022-07-25T21:05:28.034Z,98203.13
2022-07-25T21:07:54.894Z,98190.72
2022-07-25T21:10:21.603Z,98206.47
2022-07-25T21:12:48.393Z,98218.09
2022-07-25T21:15:15.294Z,98201.31
2022-07-25T21:17:42.021Z,98193.03
2022-07-25T21:20:13.719Z,98190.28
2022-07-25T21:22:41.561Z,98202.44
2022-07-25T21:25:09.055Z,98198.63
2022-07-25T21:27:36.475Z,98187.63
2022-07-25T21:30:05.883Z,98197.25
2022-07-25T21:32:32.846Z,98220.69
2022-07-25T21:34:59.858Z,98223.50
2022-07-25T21:37:26.533Z,98197.03
2022-07-25T21:39:53.463Z,98194.28
2022-07-25T21:42:21.345Z,98208.06
2022-07-25T21:44:48.255Z,98179.13
2022-07-25T21:47:14.948Z,98204.50
2022-07-25T21:50:00.652Z,98186.31
2022-07-25T21:52:34.565Z,98199.88
2022-07-25T21:55:02.954Z,98226.34
2022-07-25T21:57:29.599Z,98180.81
2022-07-25T21:59:56.424Z,98222.47
2022-07-25T22:02:23.616Z,98222.47
2022-07-25T22:04:50.741Z,98199.84
2022-07-25T22:07:17.726Z,98200.97
2022-07-25T22:09:44.973Z,98210.34
2022-07-25T22:12:11.849Z,98195.19
2022-07-25T22:14:38.640Z,98215.88
2022-07-25T22:17:05.847Z,98198.22
2022-07-25T22:19:33.040Z,98196.59
2022-07-25T22:22:00.047Z,98196.00
2022-07-25T22:24:26.725Z,98223.31
2022-07-25T22:26:53.577Z,98196.84
2022-07-25T22:29:20.249Z,98197.16
2022-07-25T22:31:47.696Z,98205.69
2022-07-25T22:34:14.450Z,98220.84
2022-07-25T22:36:41.150Z,98178.94
2022-07-25T22:39:08.382Z,98219.19
2022-07-25T22:41:35.532Z,98221.69
2022-07-25T22:44:02.240Z,98190.25
2022-07-25T22:46:30.574Z,98218.38
2022-07-25T22:48:58.771Z,98209.81
2022-07-25T22:51:26.671Z,98194.38
2022-07-25T22:53:53.787Z,98214.81
2022-07-25T22:56:21.288Z,98192.19
2022-07-25T22:58:48.820Z,98177.28
2022-07-25T23:01:17.332Z,98217.84
2022-07-25T23:03:44.203Z,98205.72
2022-07-25T23:06:11.241Z,98183.31
2022-07-25T23:08:38.110Z,98189.97
2022-07-25T23:11:06.353Z,98180.28
2022-07-25T23:13:36.794Z,98159.59
2022-07-25T23:16:04.627Z,98200.72
2022-07-25T23:18:31.990Z,98153.28
2022-07-25T23:20:59.129Z,98172.28
2022-07-25T23:23:25.799Z,98178.63
2022-07-25T23:25:52.747Z,98155.47
2022-07-25T23:28:19.502Z,98162.34
2022-07-25T23:30:46.150Z,98171.16
2022-07-25T23:33:12.827Z,98169.25
2022-07-25T23:35:39.506Z,98160.41
2022-07-25T23:38:06.225Z,98155.16
2022-07-25T23:40:33.113Z,98166.50
2022-07-25T23:42:59.849Z,98156.00
2022-07-25T23:45:28.592Z,98157.34
2022-07-25T23:47:57.099Z,98170.59
2022-07-25T23:50:24.406Z,98149.94
2022-07-25T23:52:51.489Z,98153.50
2022-07-25T23:55:18.206Z,98154.91
2022-07-25T23:57:44.955Z,98166.47
